Igarassu, Brazil
Current Conditions -  °F | °C
As of 5:00 AM on Saturday 20 Dec 2014 (Local Time) from SBRF Reporting Station
Light Rain Light Rain  
Wind Chill: 75°   Ceiling: Unl
Heat Index: 75°   Visibility: 3mi
Dew Point: 73°   Wind: 14mph
Humidity: 94%   Direction: 70°ENE
Pressure: 29.91"   Gusts: NA
Location:  7.83°S, 34.91°W
Report Text: SBRF 200800Z 07012KT 5000 -RA SCT017 SCT065 24/23 Q1013
Loading
Personal Weather Stations






























Interactive Weather Map New forecast layout! Learn more

10-Day Weather Forecast

Advertisements
Track Severe Weather on mobile